Time;durP1;ratioP1;P1;durP2;ratioP2;P2;SDS_P1;SDS_P2;PMS_P1;PMS_P2;Temp;Humidity;BMP_temperature;BMP_pressure;BME280_temperature;BME280_humidity;BME280_pressure;Samples;Min_cycle;Max_cycle;Signal;HPM_P1;HPM_P2
2022/10/15 00:01:10;;;;;;;1.80;0.75;;;18.20;49.20;;;;;;4973028;28;20202;-38
2022/10/15 00:03:42;;;;;;;1.90;0.80;;;18.30;48.70;;;;;;4971771;28;20194;-39
2022/10/15 00:06:18;;;;;;;1.70;0.68;;;18.30;48.70;;;;;;4971782;28;20222;-38
2022/10/15 00:08:49;;;;;;;2.42;0.80;;;18.30;48.70;;;;;;4972824;28;20236;-40
2022/10/15 00:11:20;;;;;;;1.98;0.77;;;18.30;48.70;;;;;;4972019;28;20198;-38
2022/10/15 00:13:52;;;;;;;1.63;0.90;;;18.30;48.80;;;;;;4972216;28;20221;-40
2022/10/15 00:16:24;;;;;;;4.53;1.00;;;18.30;48.70;;;;;;4952651;28;20226;-43
2022/10/15 00:18:57;;;;;;;3.05;0.98;;;18.30;48.80;;;;;;4953374;28;20206;-38
2022/10/15 00:21:30;;;;;;;2.85;0.70;;;18.30;48.70;;;;;;4963955;28;20189;-37
2022/10/15 00:24:00;;;;;;;1.42;0.60;;;18.30;48.80;;;;;;4960667;28;20219;-38
2022/10/15 00:26:32;;;;;;;2.10;0.63;;;18.30;48.80;;;;;;4961834;28;20198;-38
2022/10/15 00:29:05;;;;;;;2.15;0.80;;;18.40;48.80;;;;;;4952964;28;20203;-36
2022/10/15 00:31:36;;;;;;;1.75;0.68;;;18.40;48.80;;;;;;4952316;28;20195;-37
2022/10/15 00:34:06;;;;;;;2.03;0.68;;;18.40;48.80;;;;;;4952602;28;20218;-37
2022/10/15 00:36:39;;;;;;;4.63;0.93;;;18.40;48.80;;;;;;4953002;28;20226;-37
2022/10/15 00:39:10;;;;;;;1.65;0.63;;;18.40;48.90;;;;;;4952231;28;20195;-38
2022/10/15 00:41:44;;;;;;;3.13;0.68;;;18.40;48.90;;;;;;4953056;28;20203;-39
2022/10/15 00:44:55;;;;;;;2.40;0.70;;;18.50;48.80;;;;;;4965659;28;20210;-40
2022/10/15 00:47:34;;;;;;;2.58;0.95;;;18.40;48.80;;;;;;4965380;28;20581;-41
2022/10/15 00:50:09;;;;;;;2.55;0.73;;;18.40;48.80;;;;;;4951947;28;20211;-36
2022/10/15 00:52:48;;;;;;;2.10;0.85;;;18.50;48.80;;;;;;4952320;28;20186;-39
2022/10/15 00:55:25;;;;;;;3.03;0.80;;;18.50;48.90;;;;;;4951704;28;20225;-37
2022/10/15 00:57:57;;;;;;;5.00;0.70;;;18.50;48.90;;;;;;4952663;28;20643;-37
2022/10/15 01:00:28;;;;;;;1.40;0.77;;;18.50;48.90;;;;;;4951739;28;20207;-37
2022/10/15 01:02:58;;;;;;;2.28;1.02;;;18.50;48.90;;;;;;4953183;28;20191;-39
2022/10/15 01:05:30;;;;;;;3.78;0.73;;;18.50;49.00;;;;;;4952484;28;20234;-37
2022/10/15 01:08:02;;;;;;;3.13;0.80;;;18.50;49.00;;;;;;4952609;28;20195;-37
2022/10/15 01:10:46;;;;;;;3.13;0.80;;;18.50;49.00;;;;;;4952299;28;20207;-37
2022/10/15 01:13:24;;;;;;;2.22;0.60;;;18.60;49.00;;;;;;4953264;28;20217;-38
2022/10/15 01:16:01;;;;;;;2.45;0.90;;;18.60;49.00;;;;;;4965750;28;20226;-38
2022/10/15 01:18:38;;;;;;;3.33;0.88;;;18.60;48.90;;;;;;4974649;28;20200;-44
2022/10/15 01:21:15;;;;;;;2.78;0.70;;;18.60;48.90;;;;;;4975125;28;20201;-37
2022/10/15 01:24:17;;;;;;;5.78;1.20;;;18.70;49.00;;;;;;4959698;28;20197;-37
2022/10/15 01:27:11;;;;;;;1.63;0.75;;;18.70;49.00;;;;;;4971328;28;20217;-37
2022/10/15 01:29:55;;;;;;;2.13;0.55;;;18.70;48.90;;;;;;4969870;28;20202;-39
2022/10/15 01:32:30;;;;;;;4.13;0.85;;;18.60;48.90;;;;;;4971814;28;20194;-37
2022/10/15 01:35:10;;;;;;;1.00;0.68;;;18.70;48.90;;;;;;4954833;28;20223;-37
2022/10/15 01:37:47;;;;;;;2.38;0.80;;;18.70;48.90;;;;;;4955759;28;20249;-38
2022/10/15 01:40:25;;;;;;;1.45;0.57;;;18.70;48.90;;;;;;4955335;28;20205;-37
2022/10/15 01:43:00;;;;;;;2.65;1.00;;;18.70;48.90;;;;;;4956182;28;20186;-38
2022/10/15 01:45:35;;;;;;;1.88;0.68;;;18.70;48.90;;;;;;4955299;28;20215;-39
2022/10/15 01:48:10;;;;;;;4.45;1.02;;;18.70;48.80;;;;;;4956348;28;20206;-43
2022/10/15 01:50:46;;;;;;;2.47;0.90;;;18.80;48.90;;;;;;4955634;28;20198;-37
2022/10/15 01:53:25;;;;;;;4.10;1.00;;;18.80;48.70;;;;;;4956143;28;20222;-37
2022/10/15 01:55:57;;;;;;;2.25;0.85;;;18.80;48.70;;;;;;4959787;28;20238;-37
2022/10/15 01:58:31;;;;;;;2.08;1.00;;;18.80;48.60;;;;;;4974238;28;20209;-37
2022/10/15 02:01:02;;;;;;;2.78;0.85;;;18.80;48.60;;;;;;4974779;28;20294;-39
2022/10/15 02:03:44;;;;;;;2.80;0.73;;;18.80;48.60;;;;;;4973867;28;20194;-38
2022/10/15 02:06:19;;;;;;;3.53;1.00;;;18.90;48.60;;;;;;4974874;28;20198;-38
2022/10/15 02:09:10;;;;;;;5.13;1.20;;;18.90;48.60;;;;;;4974367;28;20228;-40
2022/10/15 02:11:52;;;;;;;3.33;0.90;;;18.90;48.60;;;;;;4984446;28;20193;-36
2022/10/15 02:14:31;;;;;;;3.15;1.08;;;18.90;48.60;;;;;;4959946;28;20215;-37
2022/10/15 02:17:06;;;;;;;2.40;0.88;;;18.90;48.60;;;;;;4973015;28;20251;-37
2022/10/15 02:19:45;;;;;;;1.60;0.75;;;18.90;48.50;;;;;;4955856;28;20209;-37
2022/10/15 02:22:19;;;;;;;2.20;0.88;;;19.00;48.60;;;;;;4955334;28;20213;-37
2022/10/15 02:24:55;;;;;;;1.88;0.80;;;19.00;48.50;;;;;;4954378;28;20330;-36
2022/10/15 02:27:28;;;;;;;4.00;0.95;;;19.00;48.50;;;;;;4970474;28;20202;-39
2022/10/15 02:30:00;;;;;;;1.92;0.80;;;19.00;48.50;;;;;;4971006;28;20206;-41
2022/10/15 02:32:32;;;;;;;2.47;0.88;;;19.00;48.40;;;;;;4973080;28;20209;-41
2022/10/15 02:35:06;;;;;;;2.72;0.90;;;19.10;48.40;;;;;;4953588;28;20226;-37
2022/10/15 02:37:38;;;;;;;2.35;1.00;;;19.10;48.40;;;;;;4954935;28;20719;-38
2022/10/15 02:40:09;;;;;;;2.47;0.93;;;19.10;48.40;;;;;;4952961;28;20199;-38
2022/10/15 02:42:41;;;;;;;2.45;1.00;;;19.10;48.40;;;;;;4980137;28;20198;-40
2022/10/15 02:45:12;;;;;;;2.58;1.00;;;19.10;48.40;;;;;;4972292;28;20213;-39
2022/10/15 02:47:43;;;;;;;1.92;1.02;;;19.20;48.50;;;;;;4972753;28;20226;-38
2022/10/15 02:50:15;;;;;;;2.65;0.90;;;19.20;48.40;;;;;;4973097;28;20202;-44
2022/10/15 02:52:46;;;;;;;2.05;0.68;;;19.20;48.50;;;;;;4970452;28;20217;-41
2022/10/15 02:55:17;;;;;;;1.98;0.88;;;19.20;48.40;;;;;;4954123;28;20868;-37
2022/10/15 02:57:48;;;;;;;3.05;0.82;;;19.30;48.50;;;;;;4973437;28;20233;-40
2022/10/15 03:00:19;;;;;;;3.58;1.30;;;19.30;48.50;;;;;;4973449;28;20538;-37
2022/10/15 03:02:50;;;;;;;2.58;1.00;;;19.30;48.50;;;;;;4973440;28;20198;-37
2022/10/15 03:05:22;;;;;;;3.45;1.00;;;19.30;48.50;;;;;;4973483;28;20835;-36
2022/10/15 03:07:53;;;;;;;7.07;1.63;;;19.40;48.60;;;;;;4974376;28;20199;-36
2022/10/15 03:10:24;;;;;;;5.80;1.38;;;19.40;48.50;;;;;;4974441;28;20196;-36
2022/10/15 03:12:55;;;;;;;3.90;1.20;;;19.40;48.50;;;;;;4973048;28;20246;-36
2022/10/15 03:15:25;;;;;;;4.03;1.42;;;19.50;48.60;;;;;;4972574;28;20588;-36
2022/10/15 03:17:56;;;;;;;4.10;1.23;;;19.50;48.60;;;;;;4972521;28;20237;-38
2022/10/15 03:20:29;;;;;;;3.30;1.20;;;19.50;48.50;;;;;;4972140;28;20204;-37
2022/10/15 03:22:59;;;;;;;5.40;1.05;;;19.50;48.40;;;;;;4971868;28;20202;-36
2022/10/15 03:25:30;;;;;;;3.97;0.95;;;19.60;48.40;;;;;;4972137;28;20218;-36
2022/10/15 03:28:01;;;;;;;5.07;1.02;;;19.60;48.40;;;;;;4972668;28;20233;-36
2022/10/15 03:30:31;;;;;;;4.70;1.10;;;19.60;48.30;;;;;;4972338;28;20650;-37
2022/10/15 03:33:02;;;;;;;2.95;1.00;;;19.70;48.30;;;;;;4972253;28;20198;-38
2022/10/15 03:35:35;;;;;;;2.83;1.00;;;19.70;48.20;;;;;;4971974;28;20220;-36
2022/10/15 03:38:05;;;;;;;3.70;1.30;;;19.70;48.20;;;;;;4972394;28;20280;-36
2022/10/15 03:40:37;;;;;;;2.78;1.10;;;19.70;48.10;;;;;;4971111;28;20213;-36
2022/10/15 03:43:07;;;;;;;3.63;1.10;;;19.70;48.10;;;;;;4971894;28;20862;-38
2022/10/15 03:45:38;;;;;;;2.63;1.15;;;19.70;48.00;;;;;;4971911;28;20222;-37
2022/10/15 03:48:09;;;;;;;2.85;1.23;;;19.80;48.00;;;;;;4972226;28;20213;-36
2022/10/15 03:50:42;;;;;;;3.70;1.15;;;19.80;48.00;;;;;;4971545;28;20213;-36
2022/10/15 03:53:12;;;;;;;2.05;1.00;;;19.80;48.00;;;;;;4971418;28;20194;-36
2022/10/15 03:55:43;;;;;;;4.10;1.20;;;19.80;48.00;;;;;;4971256;28;20862;-37
2022/10/15 03:58:14;;;;;;;3.80;1.20;;;19.90;48.00;;;;;;4971408;28;20230;-36
2022/10/15 04:00:45;;;;;;;3.58;1.40;;;19.90;48.00;;;;;;4971292;28;20205;-36
2022/10/15 04:03:17;;;;;;;3.20;1.20;;;19.90;47.90;;;;;;4971474;28;20194;-37
2022/10/15 04:05:55;;;;;;;4.90;1.70;;;19.90;47.80;;;;;;4971304;28;20219;-36
2022/10/15 04:08:25;;;;;;;3.85;1.30;;;19.90;47.70;;;;;;4971374;28;20658;-36
2022/10/15 04:10:56;;;;;;;2.55;1.10;;;20.00;47.70;;;;;;4971195;28;20205;-36
2022/10/15 04:13:27;;;;;;;3.30;1.13;;;20.00;47.70;;;;;;4972305;28;20209;-36
2022/10/15 04:19:04;;;;;;;3.72;1.13;;;20.00;47.70;;;;;;4962951;28;20606;-37
2022/10/15 04:21:36;;;;;;;2.80;1.20;;;20.00;47.60;;;;;;4970921;28;20292;-39
2022/10/15 04:24:07;;;;;;;3.10;0.90;;;20.00;47.70;;;;;;4971439;28;20241;-38
2022/10/15 04:26:38;;;;;;;1.80;0.90;;;20.00;47.70;;;;;;4971386;28;20216;-38
2022/10/15 04:29:09;;;;;;;3.03;1.10;;;20.00;47.70;;;;;;4971393;28;20537;-36
2022/10/15 04:31:39;;;;;;;2.03;1.00;;;20.00;47.60;;;;;;4971133;28;20540;-36
2022/10/15 04:34:10;;;;;;;5.03;1.30;;;20.00;47.60;;;;;;4971115;28;20214;-36
2022/10/15 04:36:43;;;;;;;3.20;1.27;;;20.00;47.60;;;;;;4970878;28;20221;-37
2022/10/15 04:39:14;;;;;;;4.63;1.38;;;20.10;47.60;;;;;;4971310;28;20688;-36
2022/10/15 04:41:45;;;;;;;6.82;1.77;;;20.10;47.50;;;;;;4971193;28;20194;-38
2022/10/15 04:44:15;;;;;;;3.83;1.10;;;20.10;47.50;;;;;;4970935;28;20218;-37
2022/10/15 04:46:46;;;;;;;4.00;1.40;;;20.10;47.50;;;;;;4970509;28;20202;-36
2022/10/15 04:49:17;;;;;;;3.67;1.20;;;20.10;47.50;;;;;;4970887;28;20202;-39
2022/10/15 04:51:49;;;;;;;3.63;1.35;;;20.10;48.10;;;;;;4970340;28;20202;-37
2022/10/15 04:54:20;;;;;;;2.60;1.08;;;20.10;47.50;;;;;;4970697;28;20614;-37
2022/10/15 04:56:51;;;;;;;2.58;1.00;;;20.10;47.50;;;;;;4970668;28;20709;-36
2022/10/15 04:59:22;;;;;;;3.75;1.50;;;20.10;47.50;;;;;;4970489;28;20191;-36
2022/10/15 05:01:52;;;;;;;3.22;1.17;;;20.10;47.50;;;;;;4970854;28;20194;-36
2022/10/15 05:04:23;;;;;;;4.45;1.50;;;20.10;47.60;;;;;;4970776;28;20218;-37
2022/10/15 05:06:56;;;;;;;3.15;1.10;;;20.10;47.60;;;;;;4970741;28;20213;-36
2022/10/15 05:09:26;;;;;;;4.20;1.00;;;20.10;47.50;;;;;;4973395;28;20206;-37
2022/10/15 05:11:57;;;;;;;3.78;1.20;;;20.10;47.50;;;;;;4971403;28;20203;-37
2022/10/15 05:14:28;;;;;;;3.22;1.23;;;20.10;47.50;;;;;;4970856;28;20218;-36
2022/10/15 05:16:59;;;;;;;2.10;0.90;;;20.10;47.50;;;;;;4970561;28;20237;-37
2022/10/15 05:19:30;;;;;;;3.63;1.25;;;20.10;47.50;;;;;;4970226;28;20194;-37
2022/10/15 05:22:03;;;;;;;3.80;1.33;;;20.10;47.50;;;;;;4970364;28;20202;-36
2022/10/15 05:24:33;;;;;;;3.67;1.27;;;20.10;47.50;;;;;;4970638;28;20228;-37
2022/10/15 05:27:04;;;;;;;3.42;1.17;;;20.10;47.60;;;;;;4970837;28;20229;-38
2022/10/15 05:29:35;;;;;;;2.25;0.75;;;20.10;47.50;;;;;;4971032;28;20612;-36
2022/10/15 05:32:06;;;;;;;4.28;1.50;;;20.10;47.60;;;;;;4970805;28;20203;-36
2022/10/15 05:34:36;;;;;;;3.42;1.10;;;20.10;47.60;;;;;;4971040;28;20226;-38
2022/10/15 05:37:09;;;;;;;5.65;1.27;;;20.10;47.70;;;;;;4966615;28;20218;-38
2022/10/15 05:39:40;;;;;;;2.28;0.80;;;20.10;47.70;;;;;;4951137;28;20206;-40
2022/10/15 05:42:12;;;;;;;2.33;1.10;;;20.10;47.70;;;;;;4957864;28;20202;-37
2022/10/15 05:44:43;;;;;;;3.33;1.30;;;20.10;47.60;;;;;;4970640;28;20222;-37
2022/10/15 05:47:13;;;;;;;4.75;1.13;;;20.10;47.60;;;;;;4970221;28;20220;-39
2022/10/15 05:49:44;;;;;;;4.80;1.30;;;20.10;47.60;;;;;;4970319;28;20567;-37
2022/10/15 05:52:17;;;;;;;3.05;1.05;;;20.10;47.60;;;;;;4951086;28;20191;-36
2022/10/15 05:54:47;;;;;;;1.98;1.20;;;20.10;47.60;;;;;;4951128;28;20225;-36
2022/10/15 05:57:18;;;;;;;5.30;1.08;;;20.10;47.60;;;;;;4966408;28;20222;-37
2022/10/15 05:59:50;;;;;;;4.75;1.50;;;20.10;47.60;;;;;;4970535;28;20206;-36
2022/10/15 06:02:21;;;;;;;3.53;1.10;;;20.10;47.60;;;;;;4957529;28;20199;-37
2022/10/15 06:04:52;;;;;;;3.78;1.40;;;20.10;47.60;;;;;;4954382;28;20238;-36
2022/10/15 06:07:24;;;;;;;3.20;1.17;;;20.10;47.60;;;;;;4954676;28;20203;-40
2022/10/15 06:09:55;;;;;;;2.65;1.00;;;20.10;47.60;;;;;;4954401;28;20202;-39
2022/10/15 06:12:26;;;;;;;4.75;1.38;;;20.10;47.70;;;;;;4955071;28;20693;-36
2022/10/15 06:14:56;;;;;;;3.42;1.00;;;20.10;47.60;;;;;;4954013;28;20230;-37
2022/10/15 06:17:27;;;;;;;3.80;1.10;;;20.10;47.70;;;;;;4953950;28;20641;-38
2022/10/15 06:19:58;;;;;;;5.57;1.45;;;20.10;47.60;;;;;;4954154;28;20560;-37
2022/10/15 06:22:33;;;;;;;4.10;1.25;;;20.10;47.60;;;;;;4954538;28;20214;-36
2022/10/15 06:25:03;;;;;;;3.67;1.30;;;20.10;47.70;;;;;;4953627;28;20214;-36
2022/10/15 06:27:34;;;;;;;2.67;1.02;;;20.10;47.70;;;;;;4971589;28;20225;-39
2022/10/15 06:30:05;;;;;;;2.22;1.20;;;20.10;47.60;;;;;;4973469;28;20195;-37
2022/10/15 06:32:36;;;;;;;2.63;1.15;;;20.00;47.70;;;;;;4973636;28;20201;-35
2022/10/15 06:35:07;;;;;;;4.30;1.23;;;20.00;47.70;;;;;;4973054;28;20226;-37
2022/10/15 06:37:40;;;;;;;2.67;1.20;;;20.00;47.80;;;;;;4973330;28;20233;-36
2022/10/15 06:40:11;;;;;;;3.92;1.08;;;20.00;47.80;;;;;;4973105;28;20205;-38
2022/10/15 06:42:42;;;;;;;2.75;1.00;;;20.00;47.80;;;;;;4973152;28;20206;-36
2022/10/15 06:45:14;;;;;;;3.97;1.20;;;20.00;47.80;;;;;;4972758;28;20729;-36
2022/10/15 06:47:44;;;;;;;4.22;1.13;;;20.00;47.80;;;;;;4973309;28;20214;-37
2022/10/15 06:50:15;;;;;;;3.28;1.17;;;20.00;47.80;;;;;;4972678;28;20198;-37
2022/10/15 06:52:48;;;;;;;1.73;1.15;;;19.90;47.80;;;;;;4972828;28;20213;-37
2022/10/15 06:55:18;;;;;;;3.75;1.20;;;19.90;47.80;;;;;;4972429;28;20218;-37
2022/10/15 06:57:51;;;;;;;4.13;1.48;;;19.90;47.90;;;;;;4968414;28;20227;-37
2022/10/15 07:00:22;;;;;;;3.50;1.17;;;19.90;47.90;;;;;;4972056;28;20194;-37
2022/10/15 07:02:53;;;;;;;2.38;1.17;;;19.90;47.80;;;;;;4972006;28;20195;-36
2022/10/15 07:05:23;;;;;;;2.83;1.00;;;19.80;47.80;;;;;;4972205;28;20229;-36
2022/10/15 07:07:59;;;;;;;2.10;1.20;;;19.80;47.90;;;;;;4972459;28;20202;-37
2022/10/15 07:10:30;;;;;;;2.25;1.00;;;19.80;47.90;;;;;;4972252;28;20544;-36
2022/10/15 07:13:03;;;;;;;3.92;1.13;;;19.80;47.90;;;;;;4972295;28;20202;-36
2022/10/15 07:15:34;;;;;;;2.08;0.93;;;19.80;48.00;;;;;;4974322;28;20255;-37
2022/10/15 07:18:05;;;;;;;3.05;0.98;;;19.80;47.90;;;;;;4972504;28;20214;-38
2022/10/15 07:20:36;;;;;;;2.83;1.08;;;19.70;47.90;;;;;;4972433;28;20206;-37
2022/10/15 07:23:08;;;;;;;4.03;1.02;;;19.70;47.90;;;;;;4972333;28;20198;-37
2022/10/15 07:25:39;;;;;;;1.95;1.13;;;19.70;47.90;;;;;;4971507;28;20713;-37
2022/10/15 07:28:10;;;;;;;3.03;1.02;;;19.70;48.00;;;;;;4971955;28;20194;-37
2022/10/15 07:30:41;;;;;;;3.22;1.17;;;19.70;48.00;;;;;;4971973;28;20198;-36
2022/10/15 07:33:12;;;;;;;3.15;1.38;;;19.60;48.00;;;;;;4972232;28;20198;-39
2022/10/15 07:35:42;;;;;;;2.30;0.90;;;19.60;48.00;;;;;;4971510;28;20226;-37
2022/10/15 07:38:16;;;;;;;2.25;0.90;;;19.60;48.00;;;;;;4971508;28;20599;-37
2022/10/15 07:40:47;;;;;;;3.03;1.45;;;19.60;48.00;;;;;;4970913;28;20199;-36
2022/10/15 07:43:18;;;;;;;2.88;1.20;;;19.60;48.00;;;;;;4971581;28;20203;-36
2022/10/15 07:45:51;;;;;;;4.28;1.13;;;19.50;48.00;;;;;;4971710;28;20586;-36
2022/10/15 07:48:21;;;;;;;2.72;1.20;;;19.50;48.00;;;;;;4971524;28;20221;-38
2022/10/15 07:50:57;;;;;;;1.95;1.10;;;19.50;48.00;;;;;;4969031;28;20194;-37
2022/10/15 07:53:30;;;;;;;1.65;1.08;;;19.50;48.00;;;;;;4971478;28;20213;-36
2022/10/15 07:56:02;;;;;;;1.80;1.00;;;19.50;48.10;;;;;;4971621;28;20218;-38
2022/10/15 07:58:33;;;;;;;1.90;1.13;;;19.40;48.10;;;;;;4971584;28;20234;-36
2022/10/15 08:01:05;;;;;;;2.40;1.15;;;19.40;48.10;;;;;;4971582;28;20205;-36
2022/10/15 08:03:35;;;;;;;1.45;0.90;;;19.40;48.10;;;;;;4972068;28;20205;-37
2022/10/15 08:06:08;;;;;;;1.38;0.82;;;19.30;48.10;;;;;;4971238;28;20202;-36
2022/10/15 08:08:40;;;;;;;2.30;1.05;;;19.30;48.10;;;;;;4971771;28;20194;-36
2022/10/15 08:11:12;;;;;;;2.40;1.05;;;19.30;48.10;;;;;;4971496;28;20198;-36
2022/10/15 08:13:45;;;;;;;1.42;0.82;;;19.30;48.10;;;;;;4972459;28;20904;-37
2022/10/15 08:16:18;;;;;;;2.95;1.17;;;19.30;48.10;;;;;;4971328;28;20293;-36
2022/10/15 08:18:49;;;;;;;1.20;0.90;;;19.20;48.10;;;;;;4971630;28;20233;-36
2022/10/15 08:21:20;;;;;;;1.83;1.10;;;19.20;48.20;;;;;;4970890;28;20214;-37
2022/10/15 08:23:52;;;;;;;3.00;1.30;;;19.20;48.20;;;;;;4971101;28;20599;-36
2022/10/15 08:26:25;;;;;;;1.90;0.90;;;19.20;48.20;;;;;;4970497;28;20202;-38
2022/10/15 08:28:56;;;;;;;2.80;1.20;;;19.10;48.10;;;;;;4971110;28;20202;-39
2022/10/15 08:31:26;;;;;;;1.17;1.05;;;19.10;48.20;;;;;;4971255;28;20558;-41
2022/10/15 08:33:57;;;;;;;2.50;1.00;;;19.10;48.20;;;;;;4969001;28;20195;-37
2022/10/15 08:36:28;;;;;;;1.83;0.90;;;19.10;48.30;;;;;;4967247;28;20194;-45
2022/10/15 08:39:00;;;;;;;3.00;1.23;;;19.10;48.30;;;;;;4970503;28;20241;-41
2022/10/15 08:41:35;;;;;;;1.92;1.17;;;19.00;48.30;;;;;;4963398;28;20198;-40
2022/10/15 08:44:06;;;;;;;3.03;1.33;;;19.00;48.40;;;;;;4952240;28;20225;-38
2022/10/15 08:46:40;;;;;;;1.85;0.98;;;19.00;48.40;;;;;;4963594;28;20702;-37
2022/10/15 08:49:22;;;;;;;1.48;0.88;;;19.00;48.40;;;;;;4970336;28;20201;-38
2022/10/15 08:51:58;;;;;;;1.67;0.80;;;19.00;48.40;;;;;;4966647;28;20198;-37
2022/10/15 08:54:34;;;;;;;1.95;1.10;;;18.90;48.30;;;;;;4952099;28;20229;-37
2022/10/15 08:57:14;;;;;;;1.67;1.02;;;18.90;48.40;;;;;;4965051;28;20261;-36
2022/10/15 08:59:51;;;;;;;1.77;0.93;;;18.90;48.40;;;;;;4971550;28;20228;-36
2022/10/15 09:02:24;;;;;;;1.73;1.08;;;18.90;48.40;;;;;;4971475;28;20190;-38
2022/10/15 09:05:03;;;;;;;2.42;1.25;;;18.90;48.40;;;;;;4970858;28;20222;-36
2022/10/15 09:07:42;;;;;;;2.40;1.27;;;18.80;48.40;;;;;;4971084;28;20201;-38
2022/10/15 09:10:26;;;;;;;1.10;0.75;;;18.80;48.40;;;;;;4974028;28;20198;-36
2022/10/15 09:13:01;;;;;;;2.42;1.10;;;18.80;48.40;;;;;;4970834;28;20673;-37
2022/10/15 09:15:36;;;;;;;1.73;1.00;;;18.70;48.40;;;;;;4971552;28;20226;-38
2022/10/15 09:18:07;;;;;;;1.42;0.77;;;18.80;48.40;;;;;;4957849;28;20621;-37
2022/10/15 09:20:39;;;;;;;2.42;1.20;;;18.70;48.40;;;;;;4951629;28;20199;-39
2022/10/15 09:23:16;;;;;;;1.15;1.00;;;18.70;48.40;;;;;;4952244;28;20659;-41
2022/10/15 09:25:57;;;;;;;1.88;0.85;;;18.70;48.50;;;;;;4953432;28;20229;-41
2022/10/15 09:28:37;;;;;;;1.75;1.00;;;18.60;48.50;;;;;;4971268;28;20206;-42
2022/10/15 09:31:11;;;;;;;1.85;0.82;;;18.60;48.50;;;;;;4951948;28;20210;-41
2022/10/15 09:33:45;;;;;;;2.08;0.80;;;18.60;48.50;;;;;;4952584;28;20699;-42
2022/10/15 09:36:29;;;;;;;2.03;1.00;;;18.60;48.50;;;;;;4952139;28;20199;-39
2022/10/15 09:39:12;;;;;;;1.73;1.00;;;18.60;48.50;;;;;;4954305;28;20223;-36
2022/10/15 09:41:55;;;;;;;1.20;1.00;;;18.50;48.50;;;;;;4955539;28;20607;-41
2022/10/15 09:44:30;;;;;;;2.10;1.30;;;18.50;48.50;;;;;;4968284;28;20215;-38
2022/10/15 09:47:01;;;;;;;2.45;1.20;;;18.50;48.60;;;;;;4973905;28;20210;-44
2022/10/15 09:49:31;;;;;;;1.73;1.10;;;18.40;48.60;;;;;;4975535;28;20221;-42
2022/10/15 09:52:09;;;;;;;1.73;0.90;;;18.40;48.60;;;;;;4972689;28;20213;-41
2022/10/15 09:54:47;;;;;;;0.93;0.80;;;18.40;48.60;;;;;;4955720;28;20226;-39
2022/10/15 09:57:22;;;;;;;1.75;1.10;;;18.40;48.60;;;;;;4971013;28;20662;-37
2022/10/15 09:59:59;;;;;;;1.48;1.02;;;18.30;48.60;;;;;;4973876;28;20217;-36
2022/10/15 10:02:31;;;;;;;2.28;1.17;;;18.30;48.70;;;;;;4973933;28;20201;-38
2022/10/15 10:05:21;;;;;;;2.05;1.00;;;18.30;48.70;;;;;;4973135;28;20710;-37
2022/10/15 10:07:52;;;;;;;1.23;0.93;;;18.30;48.60;;;;;;4973105;28;20249;-41
2022/10/15 10:10:28;;;;;;;1.60;0.95;;;18.30;48.70;;;;;;4972854;28;20206;-37
2022/10/15 10:13:01;;;;;;;2.45;1.30;;;18.20;48.60;;;;;;4973933;28;20212;-41
2022/10/15 10:15:35;;;;;;;1.50;1.00;;;18.20;48.70;;;;;;4964956;28;20218;-39
2022/10/15 10:18:06;;;;;;;1.70;0.90;;;18.20;48.70;;;;;;4989607;28;20197;-37
2022/10/15 10:20:37;;;;;;;1.50;1.00;;;18.10;48.70;;;;;;4992527;28;20592;-36
2022/10/15 10:23:25;;;;;;;2.22;0.90;;;18.10;48.80;;;;;;4992405;28;20223;-41
2022/10/15 10:25:59;;;;;;;1.05;0.80;;;18.10;48.80;;;;;;4958061;28;20223;-39
2022/10/15 10:28:36;;;;;;;6.50;1.02;;;18.10;48.80;;;;;;4973413;28;20206;-37
2022/10/15 10:31:09;;;;;;;4.28;1.38;;;18.10;49.20;;;;;;4973160;28;20577;-36
2022/10/15 10:33:46;;;;;;;2.60;1.38;;;18.10;50.50;;;;;;4972913;28;20213;-37
2022/10/15 10:36:28;;;;;;;5.72;1.40;;;18.20;50.50;;;;;;4973211;28;20198;-36
2022/10/15 10:39:03;;;;;;;5.93;1.30;;;18.20;50.40;;;;;;4972507;28;20214;-43
2022/10/15 10:41:51;;;;;;;5.40;1.17;;;18.20;50.60;;;;;;4971183;28;20193;-37
2022/10/15 10:44:29;;;;;;;3.75;1.30;;;18.20;50.90;;;;;;4973036;28;20269;-36
2022/10/15 10:47:15;;;;;;;2.33;1.05;;;18.20;50.80;;;;;;4973022;28;20214;-36
2022/10/15 10:49:47;;;;;;;1.92;1.15;;;18.20;50.70;;;;;;4971883;28;20731;-40
2022/10/15 10:52:30;;;;;;;1.58;0.90;;;18.10;50.60;;;;;;4972059;28;20224;-36
2022/10/15 10:55:05;;;;;;;3.90;1.33;;;18.20;50.70;;;;;;4972347;28;20218;-36
2022/10/15 10:57:45;;;;;;;4.40;1.50;;;18.10;50.60;;;;;;4972495;28;20229;-36
2022/10/15 11:00:22;;;;;;;2.20;1.50;;;18.10;50.70;;;;;;4972127;28;20226;-36
2022/10/15 11:02:54;;;;;;;3.33;1.40;;;18.10;50.90;;;;;;4972585;28;20198;-38
2022/10/15 11:05:30;;;;;;;3.92;1.50;;;18.10;50.80;;;;;;4974794;28;20241;-36
2022/10/15 11:08:08;;;;;;;3.88;1.63;;;18.10;51.00;;;;;;4953565;28;20217;-36
2022/10/15 11:10:47;;;;;;;2.60;1.77;;;18.00;50.90;;;;;;4970298;28;20202;-37
2022/10/15 11:13:30;;;;;;;4.30;1.70;;;18.00;51.10;;;;;;4972862;28;20194;-39
2022/10/15 11:16:07;;;;;;;3.95;1.70;;;18.00;51.10;;;;;;4972087;28;20642;-36
2022/10/15 11:18:54;;;;;;;3.65;1.60;;;18.00;51.00;;;;;;4971744;28;20213;-38
2022/10/15 11:21:38;;;;;;;3.53;1.50;;;18.00;51.10;;;;;;4972127;28;20198;-36
2022/10/15 11:24:16;;;;;;;2.40;1.63;;;18.00;51.00;;;;;;4972087;28;20861;-36
2022/10/15 11:27:04;;;;;;;3.60;1.17;;;17.90;51.00;;;;;;4972080;28;20224;-37
2022/10/15 11:29:42;;;;;;;2.78;1.85;;;17.90;51.00;;;;;;4971904;28;20194;-35
2022/10/15 11:32:26;;;;;;;3.45;1.88;;;17.90;51.00;;;;;;4971230;28;20194;-38
2022/10/15 11:35:19;;;;;;;3.40;2.13;;;17.80;51.10;;;;;;4971505;28;20218;-36
2022/10/15 11:38:00;;;;;;;3.28;1.75;;;17.80;51.30;;;;;;4971844;28;20209;-36
2022/10/15 11:40:40;;;;;;;3.35;2.05;;;17.80;51.30;;;;;;4970594;28;20226;-36
2022/10/15 11:43:16;;;;;;;4.53;2.20;;;17.80;51.30;;;;;;4971530;28;20197;-36
2022/10/15 11:46:01;;;;;;;3.63;1.90;;;17.80;51.90;;;;;;4971629;28;20241;-37
2022/10/15 11:48:49;;;;;;;3.60;2.00;;;17.80;51.30;;;;;;4971176;28;20201;-38
2022/10/15 11:51:31;;;;;;;2.72;1.90;;;17.70;51.20;;;;;;4971756;28;20662;-36
2022/10/15 11:54:17;;;;;;;3.70;1.98;;;17.70;51.20;;;;;;4971251;28;20209;-38
2022/10/15 11:56:50;;;;;;;4.10;1.80;;;17.70;51.20;;;;;;4971383;28;20206;-37
2022/10/15 11:59:32;;;;;;;3.42;2.20;;;17.70;51.20;;;;;;4971348;28;20233;-40
2022/10/15 12:02:06;;;;;;;3.30;1.85;;;17.60;51.20;;;;;;4970555;28;20202;-39
2022/10/15 12:04:43;;;;;;;4.28;2.30;;;17.60;51.20;;;;;;4971341;28;20277;-36
2022/10/15 12:07:20;;;;;;;3.28;1.80;;;17.60;51.10;;;;;;4971333;28;20209;-37
2022/10/15 12:09:54;;;;;;;3.03;1.67;;;17.60;51.20;;;;;;4971527;28;20720;-37
2022/10/15 12:12:42;;;;;;;1.98;1.50;;;17.50;51.10;;;;;;4972230;28;20209;-37
2022/10/15 12:15:26;;;;;;;2.90;1.73;;;17.50;51.10;;;;;;4971512;28;20221;-36
2022/10/15 12:18:03;;;;;;;2.50;1.80;;;17.50;51.00;;;;;;4971472;28;20205;-36
2022/10/15 12:20:35;;;;;;;2.65;1.83;;;17.50;51.00;;;;;;4985891;28;20216;-36
2022/10/15 12:23:06;;;;;;;2.38;1.70;;;17.50;51.00;;;;;;4990533;28;20204;-37
2022/10/15 12:25:47;;;;;;;3.20;1.70;;;17.40;51.00;;;;;;4976721;28;20218;-39
2022/10/15 12:28:24;;;;;;;1.98;1.45;;;17.40;51.00;;;;;;4971281;28;20198;-37
2022/10/15 12:31:03;;;;;;;3.78;1.70;;;17.40;51.00;;;;;;4971231;28;20201;-37
2022/10/15 12:33:39;;;;;;;3.28;1.90;;;17.40;50.90;;;;;;4989145;28;20694;-38
2022/10/15 12:36:27;;;;;;;2.20;1.58;;;17.30;50.80;;;;;;4990749;28;20572;-36
2022/10/15 12:39:00;;;;;;;2.00;1.60;;;17.30;50.80;;;;;;4980373;28;20548;-38
2022/10/15 12:41:49;;;;;;;2.92;1.60;;;17.30;50.80;;;;;;4970621;28;20635;-36
2022/10/15 12:44:24;;;;;;;3.58;1.85;;;17.30;50.80;;;;;;4970794;28;20222;-38
2022/10/15 12:46:55;;;;;;;2.38;1.65;;;17.20;50.80;;;;;;4971373;28;20205;-41
2022/10/15 12:50:00;;;;;;;3.53;1.73;;;17.20;50.80;;;;;;4971146;28;20220;-41
2022/10/15 12:53:04;;;;;;;3.47;1.88;;;17.20;50.80;;;;;;4970929;28;20206;-38
2022/10/15 12:55:36;;;;;;;3.08;1.85;;;17.20;50.80;;;;;;4970633;28;20228;-37
2022/10/15 12:58:32;;;;;;;3.13;1.60;;;17.20;50.80;;;;;;4971016;28;20198;-38
2022/10/15 13:01:08;;;;;;;3.58;1.67;;;17.20;50.70;;;;;;4970836;28;20248;-39
2022/10/15 13:03:43;;;;;;;3.03;1.60;;;17.10;50.70;;;;;;4970627;28;20252;-40
2022/10/15 13:06:32;;;;;;;4.07;1.50;;;17.10;50.70;;;;;;4970201;28;20581;-38
2022/10/15 13:09:28;;;;;;;3.40;1.70;;;17.10;50.70;;;;;;4969574;28;20201;-40
2022/10/15 13:12:00;;;;;;;2.13;1.50;;;17.10;50.70;;;;;;4952470;28;20207;-39
2022/10/15 13:14:37;;;;;;;1.85;1.30;;;17.00;50.70;;;;;;4973210;28;20218;-42
2022/10/15 13:17:16;;;;;;;2.30;1.40;;;17.00;50.60;;;;;;4974641;28;20253;-39
2022/10/15 13:19:56;;;;;;;2.65;1.55;;;17.00;50.70;;;;;;4974545;28;20256;-40
2022/10/15 13:22:27;;;;;;;1.42;1.33;;;17.00;50.70;;;;;;4974507;28;20201;-40
2022/10/15 13:25:00;;;;;;;2.65;1.63;;;17.00;50.60;;;;;;4974230;28;20213;-38
2022/10/15 13:27:57;;;;;;;2.35;1.50;;;17.00;50.70;;;;;;4974527;28;20202;-39
2022/10/15 13:30:28;;;;;;;2.22;1.50;;;16.90;50.60;;;;;;4974416;28;20202;-40